CG6036 PAJN-PASI
Flight info
| Callsign | CG6036 |
|---|---|
| Flight time | 0h 42m |
| Altitude | 3000 |
| Route | PASI DCT CHATHAM STRAIT DCT PAJN |
| Aircraft | H60/M-SDFGIRY/S |
Departure
| Time | 2026-04-25 06:17 |
|---|---|
| Airport | Juneau International Airport (PAJN) |
Arrival
| Time | 2026-04-25 06:59 |
|---|---|
| Airport | Sitka Rocky Gutierrez Airport (PASI) |
| Time | Latitude | Longitude | Altitude | Speed | Heading |
|---|---|---|---|---|---|
| 2026-04-25 06:09 | 58.35699 | -134.57116 | 29 ft | 0 kts | 289° |
| 2026-04-25 06:11 | 58.35702 | -134.57131 | 30 ft | 4 kts | 291° |
| 2026-04-25 06:11 | 58.35701 | -134.57156 | 58 ft | 5 kts | 315° |
| 2026-04-25 06:11 | 58.35707 | -134.57168 | 46 ft | 0 kts | 324° |
| 2026-04-25 06:12 | 58.35748 | -134.57171 | 54 ft | 5 kts | 90° |
| 2026-04-25 06:12 | 58.35713 | -134.57134 | 44 ft | 6 kts | 155° |
| 2026-04-25 06:12 | 58.35694 | -134.57116 | 42 ft | 0 kts | 155° |
| 2026-04-25 06:12 | 58.35694 | -134.57115 | 42 ft | 0 kts | 159° |
| 2026-04-25 06:13 | 58.35693 | -134.57116 | 42 ft | 1 kts | 186° |
| 2026-04-25 06:13 | 58.35692 | -134.57117 | 43 ft | 0 kts | 228° |
| 2026-04-25 06:13 | 58.35691 | -134.57118 | 43 ft | 0 kts | 263° |
| 2026-04-25 06:14 | 58.35692 | -134.57119 | 42 ft | 0 kts | 316° |
| 2026-04-25 06:14 | 58.35693 | -134.57120 | 42 ft | 1 kts | 329° |
| 2026-04-25 06:14 | 58.35693 | -134.57123 | 42 ft | 0 kts | 340° |
| 2026-04-25 06:14 | 58.35694 | -134.57122 | 42 ft | 1 kts | 359° |
| 2026-04-25 06:15 | 58.35695 | -134.57121 | 42 ft | 0 kts | 14° |
| 2026-04-25 06:15 | 58.35696 | -134.57120 | 47 ft | 0 kts | 65° |
| 2026-04-25 06:15 | 58.35695 | -134.57118 | 47 ft | 0 kts | 65° |
| 2026-04-25 06:16 | 58.35695 | -134.57117 | 29 ft | 0 kts | 90° |
| 2026-04-25 06:16 | 58.35695 | -134.57116 | 30 ft | 1 kts | 90° |
| 2026-04-25 06:17 | 58.35674 | -134.56926 | 82 ft | 28 kts | 159° |
| 2026-04-25 06:17 | 58.35514 | -134.56404 | 148 ft | 86 kts | 114° |
| 2026-04-25 06:17 | 58.34785 | -134.56051 | 771 ft | 151 kts | 201° |
| 2026-04-25 06:17 | 58.34201 | -134.57782 | 1090 ft | 166 kts | 258° |
| 2026-04-25 06:18 | 58.34135 | -134.59793 | 2103 ft | 147 kts | 272° |
| 2026-04-25 06:18 | 58.34273 | -134.61938 | 2064 ft | 179 kts | 280° |
| 2026-04-25 06:18 | 58.34433 | -134.64195 | 2011 ft | 163 kts | 279° |
| 2026-04-25 06:18 | 58.34569 | -134.66330 | 2010 ft | 176 kts | 278° |
| 2026-04-25 06:19 | 58.34697 | -134.68611 | 2007 ft | 173 kts | 277° |
| 2026-04-25 06:19 | 58.34778 | -134.70879 | 2014 ft | 169 kts | 266° |
| 2026-04-25 06:19 | 58.34648 | -134.73108 | 1997 ft | 177 kts | 260° |
| 2026-04-25 06:19 | 58.34406 | -134.75498 | 1998 ft | 188 kts | 260° |
| 2026-04-25 06:20 | 58.34155 | -134.77958 | 2004 ft | 183 kts | 260° |
| 2026-04-25 06:20 | 58.33930 | -134.80189 | 1996 ft | 178 kts | 260° |
| 2026-04-25 06:20 | 58.33680 | -134.82537 | 2021 ft | 169 kts | 253° |
| 2026-04-25 06:20 | 58.33283 | -134.84418 | 2020 ft | 144 kts | 237° |
| 2026-04-25 06:21 | 58.32656 | -134.86050 | 1985 ft | 173 kts | 232° |
| 2026-04-25 06:21 | 58.31882 | -134.87864 | 2022 ft | 173 kts | 232° |
| 2026-04-25 06:21 | 58.31131 | -134.89623 | 2013 ft | 168 kts | 232° |
| 2026-04-25 06:21 | 58.30391 | -134.91351 | 2008 ft | 167 kts | 232° |
| 2026-04-25 06:22 | 58.29658 | -134.93066 | 2004 ft | 167 kts | 232° |
| 2026-04-25 06:22 | 58.28926 | -134.94778 | 2009 ft | 166 kts | 232° |
| 2026-04-25 06:22 | 58.28167 | -134.96548 | 2017 ft | 168 kts | 232° |
| 2026-04-25 06:22 | 58.27385 | -134.98348 | 2010 ft | 185 kts | 232° |
| 2026-04-25 06:23 | 58.26612 | -135.00125 | 2006 ft | 180 kts | 232° |
| 2026-04-25 06:23 | 58.25821 | -135.01946 | 2033 ft | 167 kts | 232° |
| 2026-04-25 06:23 | 58.25054 | -135.03713 | 2035 ft | 171 kts | 232° |
| 2026-04-25 06:23 | 58.24305 | -135.05432 | 2020 ft | 168 kts | 232° |
| 2026-04-25 06:24 | 58.23563 | -135.07129 | 2031 ft | 167 kts | 232° |
| 2026-04-25 06:24 | 58.22798 | -135.08889 | 2036 ft | 172 kts | 232° |
| 2026-04-25 06:24 | 58.22032 | -135.10653 | 2035 ft | 173 kts | 232° |
| 2026-04-25 06:24 | 58.21264 | -135.12418 | 2030 ft | 174 kts | 232° |
| 2026-04-25 06:25 | 58.20497 | -135.14177 | 2026 ft | 174 kts | 232° |
| 2026-04-25 06:25 | 58.19730 | -135.15936 | 2031 ft | 174 kts | 232° |
| 2026-04-25 06:25 | 58.18964 | -135.17699 | 2026 ft | 174 kts | 232° |
| 2026-04-25 06:25 | 58.18188 | -135.19470 | 2030 ft | 174 kts | 232° |
| 2026-04-25 06:26 | 58.17442 | -135.21248 | 2031 ft | 169 kts | 237° |
| 2026-04-25 06:26 | 58.16840 | -135.23215 | 2025 ft | 173 kts | 242° |
| 2026-04-25 06:26 | 58.16250 | -135.25178 | 2027 ft | 174 kts | 242° |
| 2026-04-25 06:26 | 58.15651 | -135.27156 | 2027 ft | 170 kts | 242° |
| 2026-04-25 06:27 | 58.15071 | -135.29077 | 2032 ft | 168 kts | 242° |
| 2026-04-25 06:27 | 58.14500 | -135.30961 | 2031 ft | 167 kts | 242° |
| 2026-04-25 06:27 | 58.13915 | -135.32863 | 2035 ft | 167 kts | 242° |
| 2026-04-25 06:27 | 58.13332 | -135.34760 | 2028 ft | 167 kts | 242° |
| 2026-04-25 06:28 | 58.12749 | -135.36658 | 2035 ft | 167 kts | 242° |
| 2026-04-25 06:28 | 58.12166 | -135.38555 | 2030 ft | 167 kts | 242° |
| 2026-04-25 06:28 | 58.11579 | -135.40445 | 2028 ft | 167 kts | 242° |
| 2026-04-25 06:28 | 58.10995 | -135.42346 | 2038 ft | 167 kts | 242° |
| 2026-04-25 06:29 | 58.10413 | -135.44243 | 2037 ft | 166 kts | 242° |
| 2026-04-25 06:29 | 58.09824 | -135.46158 | 2031 ft | 176 kts | 242° |
| 2026-04-25 06:29 | 58.09184 | -135.48251 | 2021 ft | 188 kts | 242° |
| 2026-04-25 06:29 | 58.08534 | -135.50374 | 2054 ft | 173 kts | 242° |
| 2026-04-25 06:30 | 58.07958 | -135.52258 | 2014 ft | 173 kts | 242° |
| 2026-04-25 06:30 | 58.07352 | -135.54255 | 2025 ft | 170 kts | 242° |
| 2026-04-25 06:30 | 58.06764 | -135.56184 | 2029 ft | 167 kts | 242° |
| 2026-04-25 06:30 | 58.06180 | -135.58086 | 2029 ft | 167 kts | 242° |
| 2026-04-25 06:31 | 58.05483 | -135.59951 | 2016 ft | 184 kts | 230° |
| 2026-04-25 06:31 | 58.04430 | -135.61439 | 2027 ft | 192 kts | 212° |
| 2026-04-25 06:31 | 58.03215 | -135.62401 | 2034 ft | 188 kts | 199° |
| 2026-04-25 06:31 | 58.02082 | -135.63029 | 2041 ft | 157 kts | 199° |
| 2026-04-25 06:32 | 58.01089 | -135.63583 | 2036 ft | 147 kts | 199° |
| 2026-04-25 06:32 | 58.00123 | -135.64123 | 2054 ft | 142 kts | 199° |
| 2026-04-25 06:32 | 57.99181 | -135.64637 | 2044 ft | 140 kts | 199° |
| 2026-04-25 06:32 | 57.98245 | -135.65143 | 2039 ft | 140 kts | 199° |
| 2026-04-25 06:33 | 57.97288 | -135.65663 | 2019 ft | 158 kts | 199° |
| 2026-04-25 06:33 | 57.96128 | -135.66321 | 2017 ft | 184 kts | 199° |
| 2026-04-25 06:33 | 57.94932 | -135.66994 | 2041 ft | 170 kts | 199° |
| 2026-04-25 06:33 | 57.93764 | -135.67640 | 2040 ft | 174 kts | 199° |
| 2026-04-25 06:34 | 57.92622 | -135.68276 | 2036 ft | 163 kts | 199° |
| 2026-04-25 06:34 | 57.91507 | -135.68891 | 2029 ft | 164 kts | 199° |
| 2026-04-25 06:34 | 57.90392 | -135.69479 | 1929 ft | 174 kts | 198° |
| 2026-04-25 06:34 | 57.89193 | -135.70128 | 2468 ft | 171 kts | 198° |
| 2026-04-25 06:35 | 57.88073 | -135.70737 | 3157 ft | 174 kts | 198° |
| 2026-04-25 06:35 | 57.86959 | -135.71269 | 3788 ft | 151 kts | 194° |
| 2026-04-25 06:35 | 57.86079 | -135.70978 | 4380 ft | 139 kts | 150° |
| 2026-04-25 06:35 | 57.85049 | -135.70057 | 4600 ft | 186 kts | 164° |
| 2026-04-25 06:36 | 57.83879 | -135.69207 | 2946 ft | 184 kts | 161° |
| 2026-04-25 06:36 | 57.82698 | -135.68331 | 2885 ft | 172 kts | 161° |
| 2026-04-25 06:36 | 57.81572 | -135.67541 | 3094 ft | 180 kts | 161° |
| 2026-04-25 06:36 | 57.80430 | -135.66728 | 2614 ft | 168 kts | 161° |
| 2026-04-25 06:37 | 57.79294 | -135.65910 | 2608 ft | 176 kts | 161° |
| 2026-04-25 06:37 | 57.78162 | -135.65117 | 2614 ft | 178 kts | 161° |
| 2026-04-25 06:37 | 57.77043 | -135.64334 | 2683 ft | 167 kts | 161° |
| 2026-04-25 06:37 | 57.75919 | -135.63546 | 2675 ft | 172 kts | 161° |
| 2026-04-25 06:38 | 57.74817 | -135.62786 | 2653 ft | 162 kts | 161° |
| 2026-04-25 06:38 | 57.73762 | -135.62066 | 3009 ft | 168 kts | 161° |
| 2026-04-25 06:38 | 57.72528 | -135.61538 | 2078 ft | 192 kts | 176° |
| 2026-04-25 06:38 | 57.71334 | -135.61731 | 1407 ft | 157 kts | 191° |
| 2026-04-25 06:39 | 57.70213 | -135.61951 | 1500 ft | 162 kts | 186° |
| 2026-04-25 06:39 | 57.69089 | -135.61888 | 1512 ft | 163 kts | 170° |
| 2026-04-25 06:39 | 57.67970 | -135.61436 | 1501 ft | 166 kts | 170° |
| 2026-04-25 06:39 | 57.66940 | -135.61020 | 1510 ft | 139 kts | 170° |
| 2026-04-25 06:40 | 57.66051 | -135.60667 | 1506 ft | 125 kts | 170° |
| 2026-04-25 06:40 | 57.65233 | -135.60337 | 1504 ft | 120 kts | 170° |
| 2026-04-25 06:40 | 57.64424 | -135.60007 | 1501 ft | 118 kts | 170° |
| 2026-04-25 06:40 | 57.63627 | -135.59683 | 1496 ft | 117 kts | 170° |
| 2026-04-25 06:41 | 57.62833 | -135.59356 | 1497 ft | 116 kts | 170° |
| 2026-04-25 06:41 | 57.62045 | -135.59034 | 1494 ft | 116 kts | 170° |
| 2026-04-25 06:41 | 57.61259 | -135.58708 | 1497 ft | 116 kts | 170° |
| 2026-04-25 06:41 | 57.60349 | -135.58247 | 1468 ft | 157 kts | 166° |
| 2026-04-25 06:42 | 57.59249 | -135.57655 | 1480 ft | 170 kts | 166° |
| 2026-04-25 06:42 | 57.58106 | -135.57159 | 1488 ft | 153 kts | 169° |
| 2026-04-25 06:42 | 57.57134 | -135.56730 | 1511 ft | 137 kts | 168° |
| 2026-04-25 06:42 | 57.56246 | -135.56391 | 1511 ft | 126 kts | 180° |
| 2026-04-25 06:43 | 57.55296 | -135.56282 | 1484 ft | 154 kts | 179° |
| 2026-04-25 06:43 | 57.54168 | -135.56162 | 1487 ft | 170 kts | 179° |
| 2026-04-25 06:43 | 57.52961 | -135.56036 | 1492 ft | 176 kts | 179° |
| 2026-04-25 06:43 | 57.51730 | -135.55909 | 1494 ft | 178 kts | 179° |
| 2026-04-25 06:44 | 57.50493 | -135.55782 | 1507 ft | 177 kts | 179° |
| 2026-04-25 06:44 | 57.49301 | -135.55669 | 1512 ft | 154 kts | 182° |
| 2026-04-25 06:44 | 57.48340 | -135.55672 | 1509 ft | 126 kts | 189° |
| 2026-04-25 06:44 | 57.47508 | -135.55822 | 1499 ft | 116 kts | 189° |
| 2026-04-25 06:45 | 57.46719 | -135.55980 | 1504 ft | 112 kts | 189° |
| 2026-04-25 06:45 | 57.45943 | -135.56189 | 1465 ft | 128 kts | 199° |
| 2026-04-25 06:45 | 57.44958 | -135.56712 | 1472 ft | 161 kts | 199° |
| 2026-04-25 06:45 | 57.43884 | -135.57286 | 1498 ft | 148 kts | 199° |
| 2026-04-25 06:46 | 57.42973 | -135.57758 | 1514 ft | 127 kts | 199° |
| 2026-04-25 06:46 | 57.42149 | -135.58176 | 1503 ft | 118 kts | 199° |
| 2026-04-25 06:46 | 57.41367 | -135.58568 | 1500 ft | 115 kts | 199° |
| 2026-04-25 06:46 | 57.40602 | -135.58952 | 1501 ft | 113 kts | 199° |
| 2026-04-25 06:47 | 57.39841 | -135.59326 | 1497 ft | 113 kts | 199° |
| 2026-04-25 06:47 | 57.39085 | -135.59695 | 1499 ft | 112 kts | 199° |
| 2026-04-25 06:47 | 57.38329 | -135.60045 | 1494 ft | 112 kts | 199° |
| 2026-04-25 06:47 | 57.37567 | -135.60394 | 1623 ft | 116 kts | 199° |
| 2026-04-25 06:48 | 57.36826 | -135.60715 | 2899 ft | 100 kts | 199° |
| 2026-04-25 06:48 | 57.36224 | -135.60964 | 2593 ft | 91 kts | 199° |
| 2026-04-25 06:48 | 57.35469 | -135.61320 | 1797 ft | 128 kts | 199° |
| 2026-04-25 06:48 | 57.34664 | -135.61699 | 2661 ft | 110 kts | 199° |
| 2026-04-25 06:49 | 57.33988 | -135.61991 | 2407 ft | 103 kts | 199° |
| 2026-04-25 06:49 | 57.33216 | -135.62350 | 2459 ft | 117 kts | 199° |
| 2026-04-25 06:49 | 57.32445 | -135.62712 | 2492 ft | 115 kts | 199° |
| 2026-04-25 06:49 | 57.31698 | -135.63073 | 1956 ft | 123 kts | 199° |
| 2026-04-25 06:50 | 57.30832 | -135.63198 | 2278 ft | 134 kts | 181° |
| 2026-04-25 06:50 | 57.29873 | -135.62535 | 2726 ft | 157 kts | 152° |
| 2026-04-25 06:50 | 57.28941 | -135.61230 | 2094 ft | 181 kts | 142° |
| 2026-04-25 06:50 | 57.27969 | -135.59676 | 1202 ft | 185 kts | 140° |
| 2026-04-25 06:51 | 57.26990 | -135.58225 | 1454 ft | 178 kts | 144° |
| 2026-04-25 06:51 | 57.26026 | -135.56858 | 1405 ft | 173 kts | 144° |
| 2026-04-25 06:51 | 57.25055 | -135.55472 | 1393 ft | 177 kts | 144° |
| 2026-04-25 06:51 | 57.24088 | -135.54086 | 1408 ft | 178 kts | 144° |
| 2026-04-25 06:52 | 57.23109 | -135.52681 | 1432 ft | 177 kts | 144° |
| 2026-04-25 06:52 | 57.22462 | -135.51755 | 1413 ft | 180 kts | 144° |
| 2026-04-25 06:52 | 57.21487 | -135.50352 | 1431 ft | 178 kts | 144° |
| 2026-04-25 06:52 | 57.20702 | -135.49234 | 1553 ft | 162 kts | 145° |
| 2026-04-25 06:54 | 57.20115 | -135.48475 | 1584 ft | 159 kts | 148° |
| 2026-04-25 06:55 | 57.19568 | -135.47823 | 1454 ft | 165 kts | 150° |
| 2026-04-25 06:55 | 57.18578 | -135.46743 | 1405 ft | 158 kts | 155° |
| 2026-04-25 06:56 | 57.17673 | -135.45836 | 2267 ft | 141 kts | 154° |
| 2026-04-25 06:56 | 57.16812 | -135.45259 | 3218 ft | 123 kts | 169° |
| 2026-04-25 06:56 | 57.16011 | -135.45060 | 4213 ft | 112 kts | 179° |
| 2026-04-25 06:56 | 57.15177 | -135.44868 | 4348 ft | 126 kts | 180° |
| 2026-04-25 06:57 | 57.14045 | -135.44733 | 1902 ft | 197 kts | 175° |
| 2026-04-25 06:57 | 57.12848 | -135.44071 | 1736 ft | 169 kts | 158° |
| 2026-04-25 06:57 | 57.11905 | -135.42823 | 1479 ft | 167 kts | 142° |
| 2026-04-25 06:57 | 57.11017 | -135.41522 | 1381 ft | 161 kts | 143° |
| 2026-04-25 06:58 | 57.10127 | -135.40336 | 1126 ft | 153 kts | 145° |
| 2026-04-25 06:58 | 57.09281 | -135.39201 | 771 ft | 155 kts | 146° |
| 2026-04-25 06:58 | 57.08360 | -135.38120 | 234 ft | 150 kts | 156° |
| 2026-04-25 06:58 | 57.07494 | -135.37379 | 423 ft | 127 kts | 161° |
| 2026-04-25 06:59 | 57.06713 | -135.36908 | 364 ft | 101 kts | 173° |
| 2026-04-25 06:59 | 57.06102 | -135.37168 | 271 ft | 98 kts | 220° |
| 2026-04-25 06:59 | 57.05575 | -135.37572 | 97 ft | 66 kts | 193° |
| 2026-04-25 06:59 | 57.05318 | -135.37085 | 92 ft | 18 kts | 30° |
| 2026-04-25 07:00 | 57.05403 | -135.37125 | 49 ft | 18 kts | 26° |
| 2026-04-25 07:00 | 57.05462 | -135.36999 | 43 ft | 8 kts | 143° |
| 2026-04-25 07:00 | 57.05454 | -135.36982 | 40 ft | 4 kts | 240° |
| 2026-04-25 07:00 | 57.05484 | -135.37003 | 67 ft | 11 kts | 107° |
| 2026-04-25 07:01 | 57.05461 | -135.36966 | 45 ft | 4 kts | 223° |
| 2026-04-25 07:01 | 57.05452 | -135.36974 | 34 ft | 1 kts | 245° |
| 2026-04-25 07:01 | 57.05452 | -135.36981 | 31 ft | 0 kts | 224° |
| 2026-04-25 07:01 | 57.05404 | -135.37169 | 99 ft | 53 kts | 253° |
| 2026-04-25 07:02 | 57.05585 | -135.38120 | 451 ft | 85 kts | 254° |
| 2026-04-25 07:02 | 57.05306 | -135.38305 | 311 ft | 49 kts | 96° |
| 2026-04-25 07:02 | 57.05345 | -135.37479 | 112 ft | 55 kts | 71° |
| 2026-04-25 07:02 | 57.05419 | -135.37173 | 41 ft | 9 kts | 63° |
| 2026-04-25 07:03 | 57.05453 | -135.37057 | 42 ft | 14 kts | 72° |
| 2026-04-25 07:03 | 57.05451 | -135.36976 | 37 ft | 7 kts | 239° |
| 2026-04-25 07:03 | 57.05467 | -135.37059 | 52 ft | 17 kts | 1° |
| 2026-04-25 07:03 | 57.05483 | -135.36988 | 41 ft | 3 kts | 133° |
| 2026-04-25 07:04 | 57.05457 | -135.36975 | 41 ft | 2 kts | 196° |
| 2026-04-25 07:04 | 57.05452 | -135.36980 | 31 ft | 0 kts | 225° |
| 2026-04-25 07:05 | 57.05452 | -135.36981 | 31 ft | 2 kts | 226° |
| 2026-04-25 07:05 | 57.05361 | -135.37241 | 41 ft | 37 kts | 184° |
| 2026-04-25 07:05 | 57.04978 | -135.36624 | 100 ft | 139 kts | 136° |
| 2026-04-25 07:05 | 57.04228 | -135.35182 | 799 ft | 156 kts | 134° |
| 2026-04-25 07:06 | 57.03716 | -135.33467 | 1785 ft | 149 kts | 119° |
| 2026-04-25 07:06 | 57.03285 | -135.34061 | 2123 ft | 114 kts | 289° |
| 2026-04-25 07:06 | 57.03786 | -135.35347 | 3146 ft | 132 kts | 314° |
| 2026-04-25 07:06 | 57.04403 | -135.36696 | 2247 ft | 148 kts | 313° |
| 2026-04-25 07:07 | 57.05144 | -135.38110 | 1931 ft | 157 kts | 318° |
| 2026-04-25 07:07 | 57.05947 | -135.39507 | 1622 ft | 159 kts | 320° |
| 2026-04-25 07:07 | 57.06897 | -135.40113 | 1372 ft | 149 kts | 18° |
| 2026-04-25 07:07 | 57.07155 | -135.38525 | 935 ft | 135 kts | 128° |
| 2026-04-25 07:08 | 57.06443 | -135.37706 | 467 ft | 112 kts | 163° |
| 2026-04-25 07:08 | 57.05835 | -135.37263 | 165 ft | 66 kts | 171° |
| 2026-04-25 07:08 | 57.05543 | -135.37010 | 62 ft | 26 kts | 185° |
| 2026-04-25 07:08 | 57.05478 | -135.36972 | 45 ft | 7 kts | 207° |
| 2026-04-25 07:09 | 57.05452 | -135.36983 | 31 ft | 0 kts | 239° |
| 2026-04-25 07:09 | 57.05453 | -135.36983 | 31 ft | 0 kts | 239° |